This is the latest recevied weather packets stored in our database for station/object K7D3. If no packets are shown the sender has not sent any weather packets the latest 10 day(s).
| Time | Temp. | Humidity | Pressure | Rain* | Wind** | Luminosity | Snow |
|---|---|---|---|---|---|---|---|
| 1777912849 | 21.67° C | 23% | - | 0 mm | 7.6 m/s, 271° | - | - |
| 1777912369 | 21.11° C | 22% | - | 0 mm | 6.26 m/s, 302° | - | - |
| 1777911887 | 21.11° C | 24% | - | 0 mm | 6.71 m/s, 302° | - | - |
| 1777911408 | 21.11° C | 24% | - | 0 mm | 7.6 m/s, 271° | - | - |
| 1777910930 | 21.11° C | 28% | - | 0 mm | 4.92 m/s, 284° | - | - |
| 1777910448 | 20.56° C | 27% | - | 0 mm | 6.71 m/s, 262° | - | - |
| 1777909969 | 20.56° C | 29% | - | 0 mm | 9.39 m/s, 283° | - | - |
| 1777909490 | 20.56° C | 31% | - | 0 mm | 6.71 m/s, 283° | - | - |
| 1777909008 | 20° C | 32% | - | 0 mm | 6.26 m/s, 271° | - | - |
| 1777908530 | 20° C | 31% | - | 0 mm | 7.15 m/s, 267° | - | - |
| 1777908051 | 20° C | 35% | - | 0 mm | 4.92 m/s, 290° | - | - |
| 1777907569 | 19.44° C | 36% | - | 0 mm | 5.81 m/s, 238° | - | - |
| 1777907091 | 19.44° C | 39% | - | 0 mm | 5.36 m/s, 264° | - | - |
| 1777906610 | 18.89° C | 39% | - | 0 mm | 4.92 m/s, 250° | - | - |
| 1777906128 | 18.33° C | 39% | - | 0 mm | 6.26 m/s, 252° | - | - |
| 1777905649 | 18.33° C | 42% | - | 0 mm | 4.92 m/s, 273° | - | - |
| 1777905171 | 17.22° C | 44% | - | 0 mm | 6.71 m/s, 288° | - | - |
| 1777904689 | 16.67° C | 44% | - | 0 mm | 7.6 m/s, 221° | - | - |
| 1777904210 | 16.67° C | 45% | - | 0 mm | 4.47 m/s, 298° | - | - |
| 1777903731 | 16.11° C | 47% | - | 0 mm | 6.26 m/s, 255° | - | - |
| 1777903249 | 15.56° C | 48% | - | 0 mm | 4.92 m/s, 248° | - | - |
| 1777902771 | 15° C | 49% | - | 0 mm | 4.47 m/s, 278° | - | - |
| 1777902290 | 14.44° C | 52% | - | 0 mm | 5.36 m/s, 245° | - | - |
| 1777901808 | 15° C | 54% | - | 0 mm | 4.47 m/s, 256° | - | - |
| 1777901329 | 14.44° C | 59% | - | 0 mm | 4.02 m/s, 252° | - | - |
* Rain latest hour (hover to see other rain measurements)
** Current wind speed in m/s (hover to see current wind gust speed)